createdAt,value
2023-05-25T00:01:00.623Z,2.70
2023-05-25T00:03:29.421Z,3.10
2023-05-25T00:05:56.206Z,2.90
2023-05-25T00:08:22.910Z,3.35
2023-05-25T00:10:49.792Z,2.97
2023-05-25T00:13:16.620Z,2.83
2023-05-25T00:15:43.481Z,3.25
2023-05-25T00:18:10.440Z,2.60
2023-05-25T00:20:37.212Z,3.53
2023-05-25T00:23:04.081Z,2.88
2023-05-25T00:25:30.735Z,3.22
2023-05-25T00:27:57.754Z,3.47
2023-05-25T00:30:24.454Z,3.13
2023-05-25T00:32:51.712Z,2.95
2023-05-25T00:35:18.445Z,3.00
2023-05-25T00:37:45.504Z,2.92
2023-05-25T00:40:16.647Z,3.13
2023-05-25T00:42:44.284Z,2.60
2023-05-25T00:45:11.450Z,2.70
2023-05-25T00:47:39.830Z,3.38
2023-05-25T00:50:09.174Z,2.80
2023-05-25T00:52:36.051Z,3.05
2023-05-25T00:55:03.443Z,3.35
2023-05-25T00:57:34.060Z,3.90
2023-05-25T01:00:02.518Z,2.83
2023-05-25T01:02:29.690Z,2.58
2023-05-25T01:05:01.014Z,3.47
2023-05-25T01:07:29.012Z,3.63
2023-05-25T01:10:01.679Z,2.92
2023-05-25T01:12:34.882Z,3.58
2023-05-25T01:15:02.325Z,3.50
2023-05-25T01:17:29.212Z,3.03
2023-05-25T01:20:09.713Z,3.10
2023-05-25T01:22:38.726Z,3.55
2023-05-25T01:25:28.288Z,2.85
2023-05-25T01:28:07.398Z,2.85
2023-05-25T01:30:37.246Z,2.88
2023-05-25T01:33:05.295Z,2.22
2023-05-25T01:35:32.797Z,2.80
2023-05-25T01:37:59.684Z,3.17
2023-05-25T01:40:27.444Z,2.78
2023-05-25T01:42:54.123Z,3.03
2023-05-25T01:45:20.938Z,4.13
2023-05-25T01:47:58.179Z,3.50
2023-05-25T01:50:31.035Z,3.28
2023-05-25T01:53:03.703Z,2.80
2023-05-25T01:55:34.914Z,3.08
2023-05-25T01:58:02.746Z,2.85
2023-05-25T02:00:33.331Z,3.20
2023-05-25T02:03:01.716Z,3.70
2023-05-25T02:05:28.582Z,2.97
2023-05-25T02:07:55.415Z,2.85
2023-05-25T02:10:22.120Z,2.95
2023-05-25T02:12:49.535Z,3.15
2023-05-25T02:15:16.713Z,3.50
2023-05-25T02:17:43.624Z,3.13
2023-05-25T02:20:11.670Z,2.60
2023-05-25T02:22:38.536Z,2.85
2023-05-25T02:25:09.086Z,2.72
2023-05-25T02:27:36.469Z,2.88
2023-05-25T02:30:03.266Z,2.78
2023-05-25T02:32:31.470Z,2.40
2023-05-25T02:34:58.317Z,4.28
2023-05-25T02:37:25.116Z,3.67
2023-05-25T02:39:51.949Z,3.00
2023-05-25T02:42:19.669Z,3.80
2023-05-25T02:44:48.541Z,4.25
2023-05-25T02:47:19.034Z,2.65
2023-05-25T02:49:46.019Z,3.22
2023-05-25T02:52:13.318Z,2.55
2023-05-25T02:54:40.190Z,3.35
2023-05-25T02:57:08.658Z,2.85
2023-05-25T02:59:35.716Z,3.10
2023-05-25T03:02:03.271Z,3.13
2023-05-25T03:04:33.970Z,2.40
2023-05-25T03:07:01.640Z,2.75
2023-05-25T03:09:28.982Z,2.40
2023-05-25T03:11:55.929Z,2.88
2023-05-25T03:14:22.764Z,3.10
2023-05-25T03:16:55.814Z,3.15
2023-05-25T03:19:23.873Z,3.13
2023-05-25T03:21:50.601Z,2.88
2023-05-25T03:24:18.888Z,3.10
2023-05-25T03:26:45.862Z,2.75
2023-05-25T03:29:12.690Z,3.22
2023-05-25T03:31:39.401Z,3.25
2023-05-25T03:34:06.999Z,2.88
2023-05-25T03:36:37.436Z,2.65
2023-05-25T03:39:05.540Z,3.33
2023-05-25T03:41:32.247Z,3.33
2023-05-25T03:43:58.961Z,3.22
2023-05-25T03:46:25.857Z,2.83
2023-05-25T03:48:52.554Z,1.90
2023-05-25T03:51:19.346Z,3.13
2023-05-25T03:53:46.381Z,3.28
2023-05-25T03:56:13.003Z,3.05
2023-05-25T03:58:39.684Z,2.78
2023-05-25T04:01:06.412Z,3.08
2023-05-25T04:03:33.647Z,2.47
2023-05-25T04:06:00.729Z,2.50
2023-05-25T04:08:28.824Z,3.10
2023-05-25T04:10:56.213Z,3.35
2023-05-25T04:13:23.091Z,2.97
2023-05-25T04:15:50.649Z,2.88
2023-05-25T04:18:20.794Z,3.15
2023-05-25T04:20:48.665Z,2.38
2023-05-25T04:23:16.962Z,2.92
2023-05-25T04:25:45.570Z,3.20
2023-05-25T04:28:14.160Z,2.70
2023-05-25T04:31:08.010Z,3.30
2023-05-25T04:33:49.610Z,3.33
2023-05-25T04:36:38.975Z,3.13
2023-05-25T04:39:07.844Z,3.20
2023-05-25T04:41:39.338Z,2.85
2023-05-25T04:44:10.587Z,2.85
2023-05-25T04:46:45.650Z,3.45
2023-05-25T04:49:19.816Z,2.65
2023-05-25T04:51:46.929Z,2.53
2023-05-25T04:54:14.437Z,2.72
2023-05-25T04:56:41.111Z,2.63
2023-05-25T04:59:07.881Z,3.30
2023-05-25T05:01:40.518Z,2.38
2023-05-25T05:04:09.372Z,2.25
2023-05-25T05:06:36.693Z,2.75
2023-05-25T05:09:04.134Z,2.35
2023-05-25T05:11:30.946Z,2.42
2023-05-25T05:13:59.272Z,3.35
2023-05-25T05:16:26.462Z,2.50
2023-05-25T05:18:53.558Z,3.13
2023-05-25T05:21:23.417Z,3.00
2023-05-25T05:23:50.520Z,2.30
2023-05-25T05:26:17.964Z,3.22
2023-05-25T05:28:45.070Z,2.35
2023-05-25T05:31:12.455Z,3.13
2023-05-25T05:33:40.082Z,2.30
2023-05-25T05:36:06.886Z,3.35
2023-05-25T05:38:33.795Z,2.75
2023-05-25T05:41:01.300Z,3.20
2023-05-25T05:43:28.201Z,2.97
2023-05-25T05:45:54.900Z,2.40
2023-05-25T05:48:21.750Z,3.72
2023-05-25T05:50:49.715Z,2.17
2023-05-25T05:53:17.193Z,2.42
2023-05-25T05:55:44.982Z,2.50
2023-05-25T05:58:13.305Z,3.05
2023-05-25T06:00:40.157Z,3.20
2023-05-25T06:03:08.049Z,3.10
2023-05-25T06:05:35.214Z,3.13
2023-05-25T06:08:04.581Z,2.45
2023-05-25T06:10:34.420Z,2.70
2023-05-25T06:13:01.375Z,3.75
2023-05-25T06:15:28.159Z,2.83
2023-05-25T06:17:58.035Z,2.78
2023-05-25T06:20:24.960Z,3.92
2023-05-25T06:22:51.688Z,2.38
2023-05-25T06:25:18.915Z,2.60
2023-05-25T06:27:46.040Z,3.08
2023-05-25T06:30:13.902Z,3.60
2023-05-25T06:32:41.737Z,3.00
2023-05-25T06:35:09.370Z,2.33
2023-05-25T06:37:38.153Z,3.33
2023-05-25T06:40:09.485Z,2.78
2023-05-25T06:42:37.783Z,2.83
2023-05-25T06:45:05.677Z,2.78
2023-05-25T06:47:32.519Z,2.75
2023-05-25T06:49:59.828Z,3.75
2023-05-25T06:52:29.455Z,2.75
2023-05-25T06:54:56.900Z,2.25
2023-05-25T06:57:24.381Z,2.58
2023-05-25T06:59:51.398Z,2.72
2023-05-25T07:02:18.937Z,2.72
2023-05-25T07:04:46.018Z,2.42
2023-05-25T07:07:14.145Z,3.17
2023-05-25T07:09:41.722Z,4.50
2023-05-25T07:12:10.054Z,2.72
2023-05-25T07:14:37.643Z,2.20
2023-05-25T07:17:04.556Z,3.63
2023-05-25T07:19:31.503Z,2.88
2023-05-25T07:21:58.203Z,2.85
2023-05-25T07:24:24.991Z,2.60
2023-05-25T07:26:51.981Z,3.28
2023-05-25T07:29:18.790Z,2.75
2023-05-25T07:31:45.799Z,3.38
2023-05-25T07:34:12.637Z,2.67
2023-05-25T07:36:39.320Z,4.28
2023-05-25T07:39:06.037Z,2.45
2023-05-25T07:41:33.721Z,3.13
2023-05-25T07:44:00.535Z,2.97
2023-05-25T07:46:27.292Z,4.15
2023-05-25T07:48:55.060Z,3.15
2023-05-25T07:51:23.431Z,3.05
2023-05-25T07:53:50.268Z,2.97
2023-05-25T07:56:17.422Z,2.65
2023-05-25T07:58:44.167Z,3.65
2023-05-25T08:01:10.818Z,3.03
2023-05-25T08:03:48.915Z,3.17
2023-05-25T08:06:16.822Z,3.25
2023-05-25T08:08:45.221Z,3.55
2023-05-25T08:11:12.051Z,2.80
2023-05-25T08:13:39.207Z,2.85
2023-05-25T08:16:06.155Z,2.85
2023-05-25T08:18:32.881Z,3.60
2023-05-25T08:20:59.583Z,3.25
2023-05-25T08:23:26.198Z,3.58
2023-05-25T08:25:53.552Z,3.40
2023-05-25T08:28:23.325Z,3.95
2023-05-25T08:30:50.221Z,3.30
2023-05-25T08:33:16.969Z,3.35
2023-05-25T08:35:44.109Z,3.75
2023-05-25T08:38:10.974Z,2.95
2023-05-25T08:40:39.037Z,3.40
2023-05-25T08:43:05.802Z,2.83
2023-05-25T08:45:35.323Z,3.28
2023-05-25T08:50:34.992Z,3.08
2023-05-25T08:55:31.169Z,3.20
2023-05-25T08:58:11.952Z,3.42
2023-05-25T09:00:44.038Z,3.63
2023-05-25T09:03:14.325Z,2.50
2023-05-25T09:05:41.191Z,3.50
2023-05-25T09:08:08.785Z,3.35
2023-05-25T09:10:36.404Z,3.63
2023-05-25T09:13:19.119Z,3.78
2023-05-25T09:15:48.370Z,3.83
2023-05-25T09:18:15.002Z,3.22
2023-05-25T09:20:44.261Z,3.38
2023-05-25T09:23:13.690Z,3.85
2023-05-25T09:25:41.108Z,4.15
2023-05-25T09:28:25.711Z,4.40
2023-05-25T09:30:53.824Z,3.70
2023-05-25T09:33:21.243Z,4.07
2023-05-25T09:35:48.370Z,4.07
2023-05-25T09:38:16.511Z,3.03
2023-05-25T09:40:44.089Z,4.30
2023-05-25T09:43:17.265Z,3.97
2023-05-25T09:45:49.221Z,3.00
2023-05-25T09:48:16.234Z,3.63
2023-05-25T09:50:43.491Z,3.25
2023-05-25T09:53:11.284Z,3.85
2023-05-25T09:55:52.164Z,3.75
2023-05-25T09:58:19.756Z,3.83
2023-05-25T10:00:46.907Z,3.33
2023-05-25T10:03:15.557Z,3.45
2023-05-25T10:05:42.438Z,2.85
2023-05-25T10:08:10.236Z,3.42
2023-05-25T10:10:37.962Z,4.53
2023-05-25T10:13:06.330Z,3.85
2023-05-25T10:15:33.147Z,2.80
2023-05-25T10:18:01.838Z,3.33
2023-05-25T10:20:56.613Z,2.50
2023-05-25T10:23:17.621Z,2.42
2023-05-25T10:25:45.976Z,2.95
2023-05-25T10:28:27.089Z,2.75
2023-05-25T10:30:55.319Z,2.00
2023-05-25T10:33:22.045Z,2.38
2023-05-25T10:36:02.419Z,2.25
2023-05-25T10:38:36.424Z,2.00
2023-05-25T10:41:04.442Z,2.10
2023-05-25T10:43:31.564Z,1.73
2023-05-25T10:45:58.307Z,1.75
2023-05-25T10:48:35.515Z,2.53
2023-05-25T10:51:02.292Z,2.88
2023-05-25T10:53:28.980Z,2.75
2023-05-25T10:55:58.395Z,2.92
2023-05-25T10:58:27.278Z,2.57
2023-05-25T11:01:01.622Z,2.45
2023-05-25T11:03:47.166Z,2.40
2023-05-25T11:06:18.412Z,2.53
2023-05-25T11:08:54.255Z,2.55
2023-05-25T11:11:22.334Z,2.58
2023-05-25T11:13:50.029Z,2.78
2023-05-25T11:16:20.694Z,2.75
2023-05-25T11:18:58.614Z,2.92
2023-05-25T11:21:28.568Z,2.97
2023-05-25T11:23:56.149Z,2.22
2023-05-25T11:26:24.670Z,2.92
2023-05-25T11:28:52.465Z,2.90
2023-05-25T11:31:31.601Z,2.20
2023-05-25T11:34:01.114Z,2.60
2023-05-25T11:36:31.517Z,2.47
2023-05-25T11:39:04.959Z,2.10
2023-05-25T11:41:40.203Z,2.55
2023-05-25T11:44:07.102Z,3.10
2023-05-25T11:46:35.042Z,2.60
2023-05-25T11:49:01.935Z,2.72
2023-05-25T11:51:29.924Z,2.45
2023-05-25T11:53:56.820Z,2.55
2023-05-25T11:56:34.167Z,2.45
2023-05-25T11:59:02.223Z,2.22
2023-05-25T12:01:31.985Z,2.63
2023-05-25T12:03:59.049Z,2.30
2023-05-25T12:06:36.838Z,2.88
2023-05-25T12:09:05.566Z,2.35
2023-05-25T12:11:39.352Z,2.90
2023-05-25T12:14:07.677Z,3.05
2023-05-25T12:16:37.162Z,3.33
2023-05-25T12:19:04.105Z,3.60
2023-05-25T12:21:31.768Z,2.60
2023-05-25T12:23:58.838Z,2.95
2023-05-25T12:26:26.379Z,2.55
2023-05-25T12:29:03.348Z,2.67
2023-05-25T12:31:31.760Z,2.78
2023-05-25T12:34:11.646Z,3.38
2023-05-25T12:36:54.038Z,3.83
2023-05-25T12:39:29.710Z,3.58
2023-05-25T12:41:57.101Z,4.00
2023-05-25T12:44:27.626Z,3.50
2023-05-25T12:46:56.091Z,3.42
2023-05-25T12:49:33.912Z,3.53
2023-05-25T12:52:02.320Z,3.88
2023-05-25T12:54:35.790Z,3.75
2023-05-25T12:57:03.918Z,3.58
2023-05-25T12:59:31.439Z,3.30
2023-05-25T13:01:58.183Z,3.10
2023-05-25T13:04:24.978Z,3.60
2023-05-25T13:06:52.341Z,3.67
2023-05-25T13:09:18.974Z,3.53
2023-05-25T13:11:45.901Z,3.70
2023-05-25T13:14:12.520Z,3.10
2023-05-25T13:16:39.548Z,3.38
2023-05-25T13:19:06.372Z,3.72
2023-05-25T13:21:33.028Z,4.03
2023-05-25T13:23:59.606Z,3.80
2023-05-25T13:26:26.463Z,4.28
2023-05-25T13:28:53.107Z,3.92
2023-05-25T13:31:19.881Z,4.32
2023-05-25T13:33:46.925Z,3.47
2023-05-25T13:36:13.672Z,2.70
2023-05-25T13:38:40.321Z,3.35
2023-05-25T13:41:07.078Z,3.65
2023-05-25T13:43:33.890Z,3.00
2023-05-25T13:46:00.628Z,3.33
2023-05-25T13:48:27.373Z,3.67
2023-05-25T13:50:54.168Z,3.30
2023-05-25T13:53:20.778Z,3.90
2023-05-25T13:55:47.817Z,2.53
2023-05-25T13:58:14.502Z,3.42
2023-05-25T14:00:41.215Z,3.65
2023-05-25T14:03:08.096Z,3.75
2023-05-25T14:05:34.981Z,3.40
2023-05-25T14:08:04.592Z,3.28
2023-05-25T14:10:31.784Z,3.67
2023-05-25T14:12:58.679Z,2.47
2023-05-25T14:15:25.612Z,4.45
2023-05-25T14:17:53.370Z,3.42
2023-05-25T14:20:25.762Z,2.95
2023-05-25T14:22:53.470Z,3.25
2023-05-25T14:25:20.211Z,3.38
2023-05-25T14:27:46.888Z,3.33
2023-05-25T14:30:13.647Z,3.75
2023-05-25T14:32:40.502Z,3.10
2023-05-25T14:35:07.522Z,3.78
2023-05-25T14:37:34.230Z,2.92
2023-05-25T14:40:00.955Z,4.28
2023-05-25T14:42:29.244Z,2.70
2023-05-25T14:44:56.814Z,2.83
2023-05-25T14:47:23.502Z,3.17
2023-05-25T14:49:50.203Z,2.83
2023-05-25T14:52:16.922Z,2.83
2023-05-25T14:54:44.888Z,3.08
2023-05-25T14:57:12.272Z,2.80
2023-05-25T14:59:39.184Z,3.10
2023-05-25T15:02:06.464Z,2.60
2023-05-25T15:04:33.184Z,2.63
2023-05-25T15:06:59.810Z,2.70
2023-05-25T15:09:26.474Z,3.30
2023-05-25T15:11:53.221Z,2.55
2023-05-25T15:14:19.858Z,3.17
2023-05-25T15:16:46.574Z,2.83
2023-05-25T15:19:15.932Z,2.65
2023-05-25T15:21:44.223Z,2.90
2023-05-25T15:24:13.782Z,2.40
2023-05-25T15:26:40.709Z,3.00
2023-05-25T15:29:07.409Z,2.90
2023-05-25T15:31:34.176Z,2.50
2023-05-25T15:34:00.984Z,3.03
2023-05-25T15:36:28.148Z,3.03
2023-05-25T15:38:54.873Z,2.50
2023-05-25T15:41:21.914Z,3.15
2023-05-25T15:43:52.695Z,3.20
2023-05-25T15:46:19.585Z,2.42
2023-05-25T15:48:46.253Z,2.63
2023-05-25T15:51:12.963Z,2.40
2023-05-25T15:53:39.731Z,2.83
2023-05-25T15:56:06.629Z,3.08
2023-05-25T15:58:34.485Z,2.58
2023-05-25T16:01:01.690Z,2.20
2023-05-25T16:03:29.255Z,2.65
2023-05-25T16:05:56.507Z,2.55
2023-05-25T16:08:23.743Z,2.63
2023-05-25T16:10:50.586Z,2.60
2023-05-25T16:13:17.290Z,2.90
2023-05-25T16:15:44.450Z,2.28
2023-05-25T16:18:11.554Z,2.70
2023-05-25T16:20:38.428Z,2.20
2023-05-25T16:23:05.151Z,2.30
2023-05-25T16:25:31.823Z,2.28
2023-05-25T16:27:58.569Z,2.90
2023-05-25T16:30:25.385Z,2.40
2023-05-25T16:32:52.111Z,2.10
2023-05-25T16:35:20.043Z,2.35
2023-05-25T16:37:46.817Z,2.60
2023-05-25T16:40:13.536Z,2.75
2023-05-25T16:42:40.193Z,2.28
2023-05-25T16:45:07.306Z,2.53
2023-05-25T16:47:34.011Z,2.80
2023-05-25T16:50:00.898Z,2.70
2023-05-25T16:52:27.604Z,2.67
2023-05-25T16:54:55.280Z,2.28
2023-05-25T16:57:22.012Z,2.53
2023-05-25T16:59:48.775Z,2.40
2023-05-25T17:02:15.472Z,2.47
2023-05-25T17:04:42.249Z,2.00
2023-05-25T17:07:08.960Z,2.65
2023-05-25T17:09:35.781Z,2.40
2023-05-25T17:12:03.716Z,2.60
2023-05-25T17:14:31.014Z,2.60
2023-05-25T17:16:57.685Z,2.60
2023-05-25T17:19:24.481Z,3.80
2023-05-25T17:21:51.241Z,2.67
2023-05-25T17:24:18.148Z,2.33
2023-05-25T17:26:46.480Z,2.40
2023-05-25T17:29:13.295Z,2.95
2023-05-25T17:31:39.988Z,3.10
2023-05-25T17:34:06.777Z,2.63
2023-05-25T17:36:33.374Z,2.60
2023-05-25T17:39:00.152Z,2.70
2023-05-25T17:41:26.979Z,2.67
2023-05-25T17:43:53.672Z,2.90
2023-05-25T17:46:20.470Z,3.17
2023-05-25T17:48:47.218Z,3.03
2023-05-25T17:51:14.022Z,2.72
2023-05-25T17:53:40.817Z,2.55
2023-05-25T17:56:08.618Z,2.97
2023-05-25T17:58:36.178Z,2.80
2023-05-25T18:01:03.131Z,3.08
2023-05-25T18:03:30.229Z,3.33
2023-05-25T18:05:57.115Z,3.10
2023-05-25T18:08:23.733Z,3.45
2023-05-25T18:10:51.558Z,3.20
2023-05-25T18:13:18.196Z,3.30
2023-05-25T18:15:45.230Z,3.20
2023-05-25T18:18:14.692Z,3.55
2023-05-25T18:20:41.457Z,3.42
2023-05-25T18:23:08.440Z,3.50
2023-05-25T18:25:35.156Z,3.10
2023-05-25T18:28:01.824Z,3.33
2023-05-25T18:30:28.521Z,3.53
2023-05-25T18:32:55.202Z,3.20
2023-05-25T18:35:22.000Z,3.10
2023-05-25T18:37:48.723Z,3.08
2023-05-25T18:40:16.445Z,3.67
2023-05-25T18:42:43.181Z,3.05
2023-05-25T18:45:10.271Z,3.45
2023-05-25T18:47:36.982Z,3.20
2023-05-25T18:50:04.387Z,3.50
2023-05-25T18:52:31.051Z,3.05
2023-05-25T18:54:57.908Z,2.97
2023-05-25T18:57:24.564Z,2.80
2023-05-25T18:59:52.204Z,3.00
2023-05-25T19:02:18.937Z,2.88
2023-05-25T19:04:45.720Z,3.20
2023-05-25T19:07:12.613Z,3.42
2023-05-25T19:09:39.362Z,4.57
2023-05-25T19:12:07.322Z,3.80
2023-05-25T19:14:34.282Z,3.47
2023-05-25T19:17:02.121Z,3.75
2023-05-25T19:19:28.846Z,3.95
2023-05-25T19:21:55.526Z,3.72
2023-05-25T19:24:22.252Z,3.63
2023-05-25T19:26:49.930Z,3.25
2023-05-25T19:29:16.933Z,3.95
2023-05-25T19:31:43.709Z,3.85
2023-05-25T19:34:10.691Z,3.60
2023-05-25T19:36:37.593Z,4.25
2023-05-25T19:39:05.002Z,4.20
2023-05-25T19:41:31.816Z,4.00
2023-05-25T19:43:58.495Z,4.07
2023-05-25T19:46:25.238Z,3.85
2023-05-25T19:48:52.274Z,3.38
2023-05-25T19:51:19.009Z,4.13
2023-05-25T19:53:48.050Z,3.83
2023-05-25T19:56:14.754Z,4.55
2023-05-25T19:58:41.509Z,3.70
2023-05-25T20:01:08.242Z,3.83
2023-05-25T20:03:35.419Z,4.07
2023-05-25T20:06:02.155Z,4.03
2023-05-25T20:08:28.965Z,4.28
2023-05-25T20:10:55.711Z,4.80
2023-05-25T20:13:22.510Z,4.90
2023-05-25T20:15:49.266Z,4.70
2023-05-25T20:18:16.064Z,4.30
2023-05-25T20:20:42.892Z,3.70
2023-05-25T20:23:09.850Z,4.75
2023-05-25T20:25:36.816Z,4.38
2023-05-25T20:28:03.736Z,4.55
2023-05-25T20:30:30.505Z,4.28
2023-05-25T20:32:57.234Z,3.90
2023-05-25T20:35:24.196Z,4.38
2023-05-25T20:37:50.971Z,4.40
2023-05-25T20:40:17.691Z,3.80
2023-05-25T20:42:44.426Z,5.05
2023-05-25T20:45:11.262Z,5.05
2023-05-25T20:47:40.019Z,4.20
2023-05-25T20:50:07.178Z,4.28
2023-05-25T20:52:34.647Z,4.72
2023-05-25T20:55:01.558Z,4.22
2023-05-25T20:57:30.105Z,5.30
2023-05-25T20:59:59.913Z,4.72
2023-05-25T21:02:28.754Z,4.95
2023-05-25T21:04:55.553Z,4.82
2023-05-25T21:07:22.350Z,4.40
2023-05-25T21:09:49.158Z,4.43
2023-05-25T21:12:16.121Z,4.18
2023-05-25T21:14:42.956Z,4.93
2023-05-25T21:17:09.661Z,4.95
2023-05-25T21:19:36.526Z,4.28
2023-05-25T21:22:03.256Z,4.43
2023-05-25T21:24:30.002Z,4.25
2023-05-25T21:26:56.657Z,4.13
2023-05-25T21:29:23.452Z,3.88
2023-05-25T21:31:50.283Z,4.50
2023-05-25T21:34:17.015Z,4.35
2023-05-25T21:36:43.741Z,4.03
2023-05-25T21:39:10.674Z,4.30
2023-05-25T21:41:37.646Z,4.88
2023-05-25T21:44:04.676Z,4.40
2023-05-25T21:46:31.369Z,4.95
2023-05-25T21:48:58.097Z,4.68
2023-05-25T21:51:25.050Z,4.03
2023-05-25T21:53:51.874Z,4.47
2023-05-25T21:56:18.572Z,5.03
2023-05-25T21:58:45.506Z,4.93
2023-05-25T22:01:12.287Z,4.53
2023-05-25T22:03:39.934Z,4.60
2023-05-25T22:06:06.796Z,4.32
2023-05-25T22:08:33.789Z,4.07
2023-05-25T22:11:00.512Z,5.38
2023-05-25T22:13:27.248Z,3.63
2023-05-25T22:15:53.878Z,4.35
2023-05-25T22:18:20.651Z,4.13
2023-05-25T22:20:47.306Z,4.32
2023-05-25T22:23:14.184Z,4.38
2023-05-25T22:25:41.446Z,4.82
2023-05-25T22:28:08.348Z,3.95
2023-05-25T22:30:35.020Z,3.53
2023-05-25T22:33:02.012Z,5.55
2023-05-25T22:35:28.694Z,4.60
2023-05-25T22:37:55.451Z,4.22
2023-05-25T22:40:22.244Z,4.45
2023-05-25T22:42:51.705Z,4.88
2023-05-25T22:45:18.738Z,3.97
2023-05-25T22:47:45.599Z,4.57
2023-05-25T22:50:12.864Z,4.43
2023-05-25T22:52:42.634Z,3.70
2023-05-25T22:55:09.705Z,4.03
2023-05-25T22:57:36.511Z,3.75
2023-05-25T23:00:04.622Z,3.88
2023-05-25T23:02:31.334Z,3.83
2023-05-25T23:04:58.188Z,4.57
2023-05-25T23:07:24.852Z,4.78
2023-05-25T23:09:51.647Z,3.72
2023-05-25T23:12:18.392Z,4.35
2023-05-25T23:14:45.143Z,4.28
2023-05-25T23:17:11.825Z,4.22
2023-05-25T23:19:40.254Z,5.30
2023-05-25T23:22:07.031Z,4.15
2023-05-25T23:24:33.853Z,4.85
2023-05-25T23:27:00.812Z,4.32
2023-05-25T23:29:27.507Z,4.32
2023-05-25T23:31:54.473Z,4.18
2023-05-25T23:34:21.347Z,4.13
2023-05-25T23:36:48.636Z,4.70
2023-05-25T23:39:15.387Z,4.72
2023-05-25T23:41:42.037Z,4.05
2023-05-25T23:44:08.712Z,4.50
2023-05-25T23:46:35.573Z,3.90
2023-05-25T23:49:02.320Z,5.03
2023-05-25T23:51:29.087Z,4.10
2023-05-25T23:53:55.787Z,4.28
2023-05-25T23:56:22.544Z,4.22
2023-05-25T23:58:49.451Z,4.25
